createdAt,value
2019-06-07T00:00:39.552Z,7.60
2019-06-07T00:02:53.004Z,8.20
2019-06-07T00:05:20.107Z,8.55
2019-06-07T00:07:47.664Z,7.67
2019-06-07T00:10:31.312Z,8.58
2019-06-07T00:12:44.076Z,8.73
2019-06-07T00:15:15.404Z,8.43
2019-06-07T00:17:41.613Z,9.23
2019-06-07T00:20:13.826Z,8.88
2019-06-07T00:22:38.481Z,8.95
2019-06-07T00:25:10.150Z,8.73
2019-06-07T00:27:35.803Z,8.35
2019-06-07T00:30:29.764Z,8.80
2019-06-07T00:32:34.809Z,8.83
2019-06-07T00:35:02.363Z,9.83
2019-06-07T00:37:29.034Z,8.95
2019-06-07T00:40:13.552Z,8.78
2019-06-07T00:42:24.820Z,8.48
2019-06-07T00:44:51.606Z,10.25
2019-06-07T00:47:22.736Z,10.08
2019-06-07T00:49:51.572Z,10.25
2019-06-07T00:55:15.241Z,8.30
2019-06-07T00:57:43.692Z,8.13
2019-06-07T01:00:15.053Z,8.43
2019-06-07T01:02:42.656Z,9.45
2019-06-07T01:05:16.029Z,9.58
2019-06-07T01:07:42.316Z,9.80
2019-06-07T01:10:13.680Z,8.38
2019-06-07T01:12:40.978Z,10.28
2019-06-07T01:15:08.489Z,9.90
2019-06-07T01:17:49.997Z,10.68
2019-06-07T01:20:06.722Z,9.58
2019-06-07T01:22:34.051Z,9.05
2019-06-07T01:25:05.344Z,10.40
2019-06-07T01:27:34.762Z,10.18
2019-06-07T01:30:05.654Z,11.63
2019-06-07T01:32:32.605Z,8.93
2019-06-07T01:35:01.677Z,10.08
2019-06-07T01:37:30.289Z,9.03
2019-06-07T01:39:57.442Z,8.95
2019-06-07T01:42:29.444Z,7.97
2019-06-07T01:44:56.961Z,9.90
2019-06-07T01:47:25.579Z,10.53
2019-06-07T01:49:52.525Z,10.03
2019-06-07T01:52:23.518Z,10.75
2019-06-07T01:54:57.843Z,9.90
2019-06-07T01:57:36.723Z,8.80
2019-06-07T01:59:46.566Z,9.13
2019-06-07T02:02:14.200Z,9.85
2019-06-07T02:04:48.254Z,8.60
2019-06-07T02:07:16.112Z,9.23
2019-06-07T02:09:46.261Z,8.63
2019-06-07T02:12:25.692Z,8.35
2019-06-07T02:14:42.440Z,9.65
2019-06-07T02:17:09.314Z,9.45
2019-06-07T02:19:37.874Z,9.48
2019-06-07T02:22:07.051Z,9.53
2019-06-07T02:24:35.800Z,10.23
2019-06-07T02:27:02.990Z,9.63
2019-06-07T02:29:32.973Z,9.40
2019-06-07T02:31:59.714Z,10.72
2019-06-07T02:34:38.750Z,10.75
2019-06-07T02:37:05.200Z,11.33
2019-06-07T02:39:38.132Z,9.20
2019-06-07T02:42:02.037Z,10.43
2019-06-07T02:44:34.900Z,9.88
2019-06-07T02:46:57.163Z,9.95
2019-06-07T02:49:25.220Z,10.13
2019-06-07T02:51:52.093Z,8.93
2019-06-07T02:54:18.758Z,9.25
2019-06-07T02:56:57.809Z,9.18
2019-06-07T02:59:15.783Z,9.33
2019-06-07T03:01:42.897Z,8.95
2019-06-07T03:04:10.126Z,10.40
2019-06-07T03:06:43.448Z,7.87
2019-06-07T03:09:07.660Z,11.20
2019-06-07T03:11:38.973Z,9.75
2019-06-07T03:14:05.833Z,9.73
2019-06-07T03:16:43.467Z,9.40
2019-06-07T03:19:15.906Z,10.08
2019-06-07T03:21:42.839Z,11.15
2019-06-07T03:24:09.422Z,10.63
2019-06-07T03:27:31.426Z,9.28
2019-06-07T03:29:04.910Z,9.63
2019-06-07T03:31:39.578Z,8.18
2019-06-07T03:33:59.987Z,10.28
2019-06-07T03:36:27.507Z,10.80
2019-06-07T03:38:55.335Z,11.00
2019-06-07T03:41:22.418Z,9.25
2019-06-07T03:43:49.058Z,10.25
2019-06-07T03:46:15.637Z,9.98
2019-06-07T03:48:42.234Z,9.45
2019-06-07T03:51:24.059Z,10.00
2019-06-07T03:53:40.683Z,10.05
2019-06-07T03:56:05.966Z,9.23
2019-06-07T03:58:37.792Z,9.70
2019-06-07T04:01:02.129Z,9.33
2019-06-07T04:03:36.112Z,10.18
2019-06-07T04:05:57.653Z,11.30
2019-06-07T04:08:24.324Z,9.43
2019-06-07T04:10:59.605Z,11.48
2019-06-07T04:13:19.330Z,8.65
2019-06-07T04:15:46.075Z,9.05
2019-06-07T04:18:12.804Z,8.60
2019-06-07T04:20:41.437Z,9.00
2019-06-07T04:23:27.217Z,8.90
2019-06-07T04:25:39.475Z,8.85
2019-06-07T04:28:04.819Z,8.95
2019-06-07T04:30:41.983Z,9.30
2019-06-07T04:33:10.187Z,9.73
2019-06-07T04:35:40.144Z,10.60
2019-06-07T04:38:11.275Z,11.03
2019-06-07T04:40:42.477Z,10.75
2019-06-07T04:43:08.156Z,10.38
2019-06-07T04:45:41.818Z,10.00
2019-06-07T04:48:05.068Z,9.65
2019-06-07T04:50:34.236Z,10.25
2019-06-07T04:53:01.564Z,9.45
2019-06-07T04:55:29.100Z,9.25
2019-06-07T04:57:56.467Z,9.70
2019-06-07T05:00:49.774Z,9.68
2019-06-07T05:03:04.328Z,9.13
2019-06-07T05:05:31.880Z,8.75
2019-06-07T05:08:07.237Z,9.15
2019-06-07T05:10:27.553Z,8.85
2019-06-07T05:12:54.379Z,8.85
2019-06-07T05:15:21.247Z,9.85
2019-06-07T05:17:48.480Z,9.50
2019-06-07T05:20:16.102Z,9.48
2019-06-07T05:22:45.335Z,8.38
2019-06-07T05:25:12.661Z,8.73
2019-06-07T05:27:43.738Z,9.38
2019-06-07T05:30:50.696Z,9.33
2019-06-07T05:32:41.954Z,8.60
2019-06-07T05:35:09.112Z,8.43
2019-06-07T05:37:36.269Z,8.25
2019-06-07T05:40:04.986Z,8.60
2019-06-07T05:42:32.183Z,8.08
2019-06-07T05:44:58.842Z,8.43
2019-06-07T05:47:26.589Z,8.53
2019-06-07T05:49:53.311Z,7.87
2019-06-07T05:52:20.055Z,8.10
2019-06-07T05:54:47.128Z,8.03
2019-06-07T05:57:13.874Z,7.67
2019-06-07T05:59:43.616Z,7.60
2019-06-07T06:02:21.761Z,8.10
2019-06-07T06:04:39.321Z,7.87
2019-06-07T06:07:05.537Z,7.65
2019-06-07T06:09:32.188Z,8.13
2019-06-07T06:12:02.285Z,7.08
2019-06-07T06:14:27.212Z,6.65
2019-06-07T06:16:53.766Z,6.28
2019-06-07T06:19:20.321Z,7.17
2019-06-07T06:21:46.836Z,7.10
2019-06-07T06:24:13.373Z,6.33
2019-06-07T06:26:47.695Z,6.58
2019-06-07T06:29:08.263Z,6.55
2019-06-07T06:31:34.907Z,6.20
2019-06-07T06:34:01.462Z,6.15
2019-06-07T06:36:28.091Z,6.20
2019-06-07T06:38:54.673Z,7.10
2019-06-07T06:41:21.291Z,6.50
2019-06-07T06:43:51.821Z,6.12
2019-06-07T06:46:37.465Z,6.20
2019-06-07T06:48:48.357Z,6.22
2019-06-07T06:51:13.060Z,6.10
2019-06-07T06:53:40.435Z,6.10
2019-06-07T06:56:08.093Z,5.83
2019-06-07T06:59:18.840Z,5.83
2019-06-07T07:01:06.926Z,5.50
2019-06-07T07:03:56.417Z,6.10
2019-06-07T07:06:24.745Z,6.03
2019-06-07T07:08:29.450Z,6.50
2019-06-07T07:10:56.003Z,6.10
2019-06-07T07:13:22.531Z,6.25
2019-06-07T07:15:55.125Z,6.10
2019-06-07T07:18:18.134Z,6.00
2019-06-07T07:20:45.911Z,6.15
2019-06-07T07:23:13.198Z,6.00
2019-06-07T07:25:40.213Z,5.72
2019-06-07T07:28:07.003Z,6.05
2019-06-07T07:30:41.956Z,6.00
2019-06-07T07:33:08.802Z,5.78
2019-06-07T07:35:36.694Z,6.05
2019-06-07T07:38:03.327Z,5.80
2019-06-07T07:41:30.243Z,6.37
2019-06-07T07:42:58.314Z,6.40
2019-06-07T07:45:24.966Z,6.53
2019-06-07T07:48:08.335Z,5.55
2019-06-07T07:50:19.885Z,5.40
2019-06-07T07:52:49.054Z,5.12
2019-06-07T07:55:15.036Z,6.10
2019-06-07T07:57:41.562Z,5.03
2019-06-07T08:00:48.936Z,5.00
2019-06-07T08:02:37.078Z,5.35
2019-06-07T08:05:21.797Z,4.95
2019-06-07T08:07:34.711Z,4.47
2019-06-07T08:10:04.226Z,4.58
2019-06-07T08:12:30.046Z,3.75
2019-06-07T08:15:00.412Z,3.80
2019-06-07T08:17:24.956Z,3.80
2019-06-07T08:19:52.313Z,3.30
2019-06-07T08:22:19.891Z,3.12
2019-06-07T08:24:50.030Z,3.52
2019-06-07T08:27:25.981Z,3.80
2019-06-07T08:29:45.464Z,3.55
2019-06-07T08:32:11.694Z,3.15
2019-06-07T08:34:44.770Z,3.55
2019-06-07T08:37:13.475Z,3.60
2019-06-07T08:39:40.048Z,4.58
2019-06-07T08:42:17.827Z,4.95
2019-06-07T08:44:35.121Z,5.53
2019-06-07T08:47:18.882Z,3.55
2019-06-07T08:49:30.006Z,3.50
2019-06-07T08:52:03.056Z,3.60
2019-06-07T08:54:24.972Z,3.40
2019-06-07T08:56:52.726Z,3.37
2019-06-07T08:59:19.902Z,3.17
2019-06-07T09:01:46.429Z,3.40
2019-06-07T09:04:13.096Z,3.30
2019-06-07T09:07:02.707Z,3.20
2019-06-07T09:09:08.321Z,3.10
2019-06-07T09:11:35.010Z,3.02
2019-06-07T09:14:05.361Z,3.25
2019-06-07T09:16:30.387Z,2.87
2019-06-07T09:18:59.063Z,3.00
2019-06-07T09:21:25.378Z,2.67
2019-06-07T09:23:52.014Z,2.62
2019-06-07T09:26:19.206Z,5.20
2019-06-07T09:28:46.256Z,2.90
2019-06-07T09:31:13.084Z,3.25
2019-06-07T09:33:39.832Z,3.20
2019-06-07T09:36:10.292Z,2.90
2019-06-07T09:38:35.122Z,3.00
2019-06-07T09:41:04.487Z,2.75
2019-06-07T09:46:04.022Z,2.80
2019-06-07T09:49:09.806Z,3.22
2019-06-07T09:51:01.986Z,2.92
2019-06-07T09:53:24.563Z,6.78
2019-06-07T09:55:51.194Z,3.95
2019-06-07T09:58:50.630Z,3.10
2019-06-07T10:00:46.247Z,2.55
2019-06-07T10:03:21.029Z,2.80
2019-06-07T10:05:41.245Z,3.33
2019-06-07T10:08:25.644Z,2.62
2019-06-07T10:10:36.446Z,2.62
2019-06-07T10:13:04.140Z,2.80
2019-06-07T10:15:32.089Z,2.62
2019-06-07T10:17:58.657Z,2.80
2019-06-07T10:20:25.427Z,2.50
2019-06-07T10:22:52.055Z,2.42
2019-06-07T10:25:19.798Z,2.77
2019-06-07T10:27:46.348Z,2.70
2019-06-07T10:30:13.523Z,2.67
2019-06-07T10:32:40.079Z,2.60
2019-06-07T10:35:08.195Z,2.72
2019-06-07T10:37:35.926Z,2.92
2019-06-07T10:40:09.218Z,2.90
2019-06-07T10:42:36.122Z,3.70
2019-06-07T10:45:06.185Z,2.72
2019-06-07T10:47:33.002Z,3.17
2019-06-07T10:50:01.927Z,2.75
2019-06-07T10:52:28.709Z,2.62
2019-06-07T10:54:55.386Z,2.72
2019-06-07T10:57:23.143Z,2.40
2019-06-07T10:59:49.678Z,2.50
2019-06-07T11:02:16.248Z,2.75
2019-06-07T11:04:42.798Z,2.90
2019-06-07T11:07:10.120Z,2.77
2019-06-07T11:09:36.815Z,2.80
2019-06-07T11:12:04.340Z,2.60
2019-06-07T11:14:30.900Z,2.40
2019-06-07T11:16:57.570Z,2.67
2019-06-07T11:19:24.130Z,2.60
2019-06-07T11:21:51.692Z,2.33
2019-06-07T11:24:23.714Z,2.58
2019-06-07T11:26:46.648Z,2.72
2019-06-07T11:29:14.661Z,2.65
2019-06-07T11:31:41.690Z,2.80
2019-06-07T11:34:08.308Z,2.52
2019-06-07T11:36:34.910Z,3.02
2019-06-07T11:39:06.494Z,2.60
2019-06-07T11:41:33.350Z,2.85
2019-06-07T11:43:59.883Z,2.55
2019-06-07T11:46:26.439Z,3.30
2019-06-07T11:48:53.085Z,2.60
2019-06-07T11:51:19.658Z,2.65
2019-06-07T11:53:46.350Z,2.72
2019-06-07T11:56:13.985Z,3.00
2019-06-07T11:58:40.682Z,2.80
2019-06-07T12:01:07.640Z,2.98
2019-06-07T12:03:34.709Z,2.60
2019-06-07T12:06:01.306Z,2.70
2019-06-07T12:08:27.871Z,3.10
2019-06-07T12:10:54.438Z,2.75
2019-06-07T12:13:20.965Z,2.80
2019-06-07T12:15:49.172Z,2.47
2019-06-07T12:18:17.366Z,2.65
2019-06-07T12:20:44.088Z,2.65
2019-06-07T12:23:12.018Z,2.87
2019-06-07T12:25:38.829Z,2.72
2019-06-07T12:28:05.363Z,2.77
2019-06-07T12:30:32.111Z,2.50
2019-06-07T12:32:58.721Z,2.25
2019-06-07T12:35:25.254Z,2.65
2019-06-07T12:37:51.850Z,2.80
2019-06-07T12:40:27.677Z,2.75
2019-06-07T12:42:46.930Z,2.55
2019-06-07T12:45:23.211Z,2.37
2019-06-07T12:47:42.371Z,3.08
2019-06-07T12:50:09.718Z,2.60
2019-06-07T12:52:36.385Z,2.70
2019-06-07T12:55:05.544Z,2.83
2019-06-07T12:57:32.318Z,2.37
2019-06-07T12:59:58.873Z,2.50
2019-06-07T13:02:25.668Z,2.40
2019-06-07T13:04:52.387Z,2.80
2019-06-07T13:07:20.066Z,2.47
2019-06-07T13:09:46.915Z,2.52
2019-06-07T13:12:13.438Z,2.62
2019-06-07T13:14:40.102Z,3.02
2019-06-07T13:17:06.653Z,2.50
2019-06-07T13:19:33.380Z,2.67
2019-06-07T13:21:59.910Z,3.83
2019-06-07T13:24:26.582Z,2.52
2019-06-07T13:26:53.083Z,2.67
2019-06-07T13:29:34.542Z,2.17
2019-06-07T13:32:01.134Z,2.30
2019-06-07T13:34:28.125Z,2.30
2019-06-07T13:36:54.999Z,2.40
2019-06-07T13:39:24.581Z,2.30
2019-06-07T13:41:49.932Z,2.30
2019-06-07T13:44:16.756Z,2.27
2019-06-07T13:46:43.506Z,2.35
2019-06-07T13:49:10.204Z,2.37
2019-06-07T13:51:36.848Z,2.62
2019-06-07T13:54:03.586Z,2.47
2019-06-07T13:56:30.164Z,2.00
2019-06-07T13:58:56.710Z,2.17
2019-06-07T14:01:24.516Z,2.33
2019-06-07T14:03:51.358Z,2.55
2019-06-07T14:06:18.967Z,2.30
2019-06-07T14:08:45.571Z,2.30
2019-06-07T14:11:12.289Z,2.10
2019-06-07T14:13:38.868Z,2.35
2019-06-07T14:16:05.416Z,2.70
2019-06-07T14:18:31.992Z,2.10
2019-06-07T14:20:59.063Z,1.95
2019-06-07T14:23:42.316Z,2.02
2019-06-07T14:25:54.029Z,2.02
2019-06-07T14:28:23.734Z,2.08
2019-06-07T14:30:49.054Z,2.15
2019-06-07T14:33:15.629Z,2.35
2019-06-07T14:35:42.294Z,2.02
2019-06-07T14:38:08.832Z,2.37
2019-06-07T14:40:35.613Z,1.90
2019-06-07T14:43:02.167Z,2.17
2019-06-07T14:45:29.774Z,1.98
2019-06-07T14:47:56.538Z,1.90
2019-06-07T14:50:24.180Z,2.00
2019-06-07T14:52:50.768Z,2.25
2019-06-07T14:55:17.407Z,2.20
2019-06-07T14:57:44.071Z,2.58
2019-06-07T15:00:13.132Z,1.77
2019-06-07T15:02:40.055Z,1.60
2019-06-07T15:05:07.420Z,1.95
2019-06-07T15:07:34.870Z,1.82
2019-06-07T15:10:02.129Z,1.82
2019-06-07T15:12:29.409Z,2.10
2019-06-07T15:14:56.001Z,2.05
2019-06-07T15:17:22.719Z,2.08
2019-06-07T15:19:49.290Z,2.05
2019-06-07T15:22:15.823Z,1.60
2019-06-07T15:24:42.453Z,1.65
2019-06-07T15:27:08.976Z,1.95
2019-06-07T15:29:37.883Z,1.82
2019-06-07T15:32:04.817Z,1.87
2019-06-07T15:34:32.352Z,1.95
2019-06-07T15:36:59.032Z,2.00
2019-06-07T15:39:25.603Z,1.90
2019-06-07T15:41:52.168Z,1.90
2019-06-07T15:44:18.797Z,2.12
2019-06-07T15:46:45.502Z,2.08
2019-06-07T15:49:12.102Z,1.65
2019-06-07T15:51:38.803Z,1.90
2019-06-07T15:54:05.360Z,1.90
2019-06-07T15:56:32.597Z,2.22
2019-06-07T15:58:59.258Z,1.90
2019-06-07T16:01:26.157Z,2.02
2019-06-07T16:03:52.725Z,2.00
2019-06-07T16:06:21.172Z,1.87
2019-06-07T16:08:48.228Z,1.87
2019-06-07T16:11:14.844Z,2.05
2019-06-07T16:13:42.770Z,2.58
2019-06-07T16:16:10.200Z,2.20
2019-06-07T16:18:37.659Z,2.50
2019-06-07T16:21:04.567Z,1.82
2019-06-07T16:23:31.175Z,2.00
2019-06-07T16:25:58.446Z,1.70
2019-06-07T16:28:25.109Z,2.10
2019-06-07T16:30:51.823Z,1.90
2019-06-07T16:33:18.382Z,2.50
2019-06-07T16:35:45.342Z,2.12
2019-06-07T16:38:12.068Z,2.02
2019-06-07T16:40:38.629Z,2.10
2019-06-07T16:43:16.792Z,1.90
2019-06-07T16:45:33.974Z,1.80
2019-06-07T16:48:00.634Z,2.47
2019-06-07T16:50:27.200Z,2.10
2019-06-07T16:52:53.828Z,2.00
2019-06-07T16:55:20.578Z,2.08
2019-06-07T16:57:47.172Z,1.72
2019-06-07T17:00:14.734Z,2.05
2019-06-07T17:02:42.214Z,1.70
2019-06-07T17:05:09.469Z,1.80
2019-06-07T17:07:38.152Z,1.70
2019-06-07T17:10:07.071Z,1.85
2019-06-07T17:12:33.853Z,1.98
2019-06-07T17:15:00.432Z,2.05
2019-06-07T17:17:27.008Z,2.02
2019-06-07T17:19:53.656Z,2.17
2019-06-07T17:22:20.302Z,2.35
2019-06-07T17:24:49.687Z,2.00
2019-06-07T17:27:16.613Z,2.20
2019-06-07T17:29:43.688Z,1.77
2019-06-07T17:32:10.714Z,2.05
2019-06-07T17:34:39.823Z,2.00
2019-06-07T17:37:06.848Z,1.87
2019-06-07T17:39:33.418Z,1.72
2019-06-07T17:42:02.461Z,2.27
2019-06-07T17:44:28.364Z,1.98
2019-06-07T17:46:54.951Z,1.80
2019-06-07T17:49:21.563Z,2.25
2019-06-07T17:51:48.136Z,2.00
2019-06-07T17:54:14.799Z,2.20
2019-06-07T17:56:42.359Z,1.87
2019-06-07T17:59:09.028Z,2.10
2019-06-07T18:01:41.396Z,2.22
2019-06-07T18:04:08.123Z,2.22
2019-06-07T18:06:40.448Z,1.90
2019-06-07T18:09:07.790Z,2.30
2019-06-07T18:11:34.381Z,3.52
2019-06-07T18:14:10.449Z,2.40
2019-06-07T18:16:32.644Z,2.08
2019-06-07T18:18:59.281Z,2.15
2019-06-07T18:21:27.393Z,2.08
2019-06-07T18:23:54.779Z,2.27
2019-06-07T18:26:21.557Z,2.47
2019-06-07T18:28:48.478Z,2.33
2019-06-07T18:31:15.432Z,2.50
2019-06-07T18:33:42.986Z,2.00
2019-06-07T18:36:09.576Z,2.25
2019-06-07T18:38:36.775Z,2.10
2019-06-07T18:41:03.475Z,2.37
2019-06-07T18:43:30.082Z,2.40
2019-06-07T18:45:57.589Z,3.00
2019-06-07T18:48:24.244Z,2.40
2019-06-07T18:50:52.605Z,2.47
2019-06-07T18:53:19.217Z,2.20
2019-06-07T18:55:46.012Z,2.27
2019-06-07T18:58:12.588Z,2.67
2019-06-07T19:00:40.654Z,2.55
2019-06-07T19:03:07.574Z,2.58
2019-06-07T19:05:34.288Z,2.65
2019-06-07T19:08:00.854Z,2.70
2019-06-07T19:10:27.639Z,2.70
2019-06-07T19:12:55.261Z,2.75
2019-06-07T19:15:22.815Z,2.77
2019-06-07T19:17:49.776Z,2.30
2019-06-07T19:20:19.014Z,3.27
2019-06-07T19:22:48.375Z,2.87
2019-06-07T19:25:16.629Z,2.90
2019-06-07T19:27:43.266Z,3.17
2019-06-07T19:30:11.935Z,3.00
2019-06-07T19:32:39.042Z,3.50
2019-06-07T19:35:07.112Z,3.08
2019-06-07T19:37:34.844Z,3.35
2019-06-07T19:40:03.027Z,3.00
2019-06-07T19:42:29.816Z,2.70
2019-06-07T19:45:09.846Z,2.62
2019-06-07T19:47:25.951Z,2.60
2019-06-07T19:49:53.092Z,2.62
2019-06-07T19:52:20.134Z,3.12
2019-06-07T19:54:46.816Z,2.67
2019-06-07T19:57:13.381Z,2.80
2019-06-07T19:59:39.929Z,2.90
2019-06-07T20:02:07.123Z,2.87
2019-06-07T20:04:33.947Z,2.42
2019-06-07T20:07:00.580Z,2.27
2019-06-07T20:09:27.113Z,2.52
2019-06-07T20:11:54.498Z,2.65
2019-06-07T20:14:21.192Z,2.17
2019-06-07T20:16:50.566Z,2.60
2019-06-07T20:19:17.258Z,2.50
2019-06-07T20:21:44.004Z,2.40
2019-06-07T20:24:24.794Z,2.25
2019-06-07T20:26:39.137Z,2.30
2019-06-07T20:29:05.788Z,2.40
2019-06-07T20:31:32.425Z,2.40
2019-06-07T20:33:59.122Z,2.40
2019-06-07T20:36:25.851Z,2.60
2019-06-07T20:38:52.441Z,2.30
2019-06-07T20:41:19.122Z,2.60
2019-06-07T20:43:45.802Z,2.58
2019-06-07T20:46:12.422Z,2.50
2019-06-07T20:48:40.632Z,2.52
2019-06-07T20:51:08.526Z,2.58
2019-06-07T20:53:35.450Z,2.65
2019-06-07T20:56:04.706Z,2.75
2019-06-07T20:58:31.530Z,2.30
2019-06-07T21:00:58.605Z,2.75
2019-06-07T21:03:25.522Z,2.45
2019-06-07T21:05:52.082Z,2.55
2019-06-07T21:08:18.711Z,2.27
2019-06-07T21:10:45.297Z,2.80
2019-06-07T21:13:11.962Z,2.80
2019-06-07T21:15:48.751Z,2.62
2019-06-07T21:18:17.465Z,2.95
2019-06-07T21:20:37.613Z,2.62
2019-06-07T21:23:04.734Z,3.20
2019-06-07T21:25:32.531Z,2.85
2019-06-07T21:27:59.073Z,2.85
2019-06-07T21:30:25.758Z,2.87
2019-06-07T21:32:52.495Z,2.80
2019-06-07T21:35:19.181Z,3.10
2019-06-07T21:37:45.970Z,2.90
2019-06-07T21:40:13.068Z,2.90
2019-06-07T21:42:39.799Z,2.67
2019-06-07T21:45:07.854Z,2.98
2019-06-07T21:47:34.930Z,2.70
2019-06-07T21:50:02.565Z,2.95
2019-06-07T21:52:29.360Z,2.55
2019-06-07T21:54:56.128Z,2.83
2019-06-07T21:57:22.738Z,2.80
2019-06-07T21:59:49.321Z,2.52
2019-06-07T22:02:16.018Z,2.92
2019-06-07T22:04:43.846Z,2.42
2019-06-07T22:07:11.563Z,2.60
2019-06-07T22:09:38.199Z,2.83
2019-06-07T22:12:05.951Z,2.98
2019-06-07T22:14:32.696Z,3.50
2019-06-07T22:16:59.370Z,3.10
2019-06-07T22:19:27.674Z,2.83
2019-06-07T22:22:02.675Z,3.02
2019-06-07T22:24:24.118Z,3.33
2019-06-07T22:26:50.688Z,3.40
2019-06-07T22:29:19.260Z,3.77
2019-06-07T22:31:45.862Z,3.42
2019-06-07T22:34:12.796Z,4.33
2019-06-07T22:36:39.680Z,5.20
2019-06-07T22:39:07.526Z,5.03
2019-06-07T22:41:34.910Z,4.72
2019-06-07T22:44:01.507Z,3.90
2019-06-07T22:46:37.376Z,4.08
2019-06-07T22:48:57.111Z,3.98
2019-06-07T22:51:24.999Z,3.67
2019-06-07T22:53:51.590Z,3.70
2019-06-07T22:56:20.177Z,3.50
2019-06-07T22:58:47.995Z,3.50
2019-06-07T23:01:14.583Z,3.58
2019-06-07T23:03:44.356Z,3.65
2019-06-07T23:06:10.927Z,3.40
2019-06-07T23:08:37.710Z,3.15
2019-06-07T23:11:04.390Z,3.62
2019-06-07T23:13:30.937Z,3.50
2019-06-07T23:15:57.679Z,3.95
2019-06-07T23:18:26.126Z,3.95
2019-06-07T23:20:52.726Z,3.22
2019-06-07T23:23:20.037Z,4.00
2019-06-07T23:25:46.650Z,3.80
2019-06-07T23:28:14.319Z,4.80
2019-06-07T23:30:40.939Z,4.33
2019-06-07T23:33:07.486Z,4.17
2019-06-07T23:35:34.055Z,4.40
2019-06-07T23:38:00.637Z,3.67
2019-06-07T23:40:27.306Z,4.33
2019-06-07T23:42:53.845Z,3.92
2019-06-07T23:45:21.786Z,3.42
2019-06-07T23:47:50.651Z,4.50
2019-06-07T23:50:17.645Z,4.47
2019-06-07T23:52:44.302Z,4.10
2019-06-07T23:55:11.788Z,4.30
2019-06-07T23:57:38.495Z,3.67
